sensor_id;sensor_type;location;lat;lon;timestamp;P1;durP1;ratioP1;P2;durP2;ratioP2
7479;SDS011;3781;42.272;22.658;2022-10-16T00:00:37;2.83;;;2.30;;
7479;SDS011;3781;42.272;22.658;2022-10-16T00:03:05;1.50;;;1.40;;
7479;SDS011;3781;42.272;22.658;2022-10-16T00:05:33;2.53;;;1.97;;
7479;SDS011;3781;42.272;22.658;2022-10-16T00:08:05;2.53;;;2.00;;
7479;SDS011;3781;42.272;22.658;2022-10-16T00:10:31;2.33;;;1.67;;
7479;SDS011;3781;42.272;22.658;2022-10-16T00:12:58;1.40;;;1.33;;
7479;SDS011;3781;42.272;22.658;2022-10-16T00:15:25;2.13;;;1.17;;
7479;SDS011;3781;42.272;22.658;2022-10-16T00:17:53;1.20;;;0.93;;
7479;SDS011;3781;42.272;22.658;2022-10-16T00:20:20;2.03;;;1.17;;
7479;SDS011;3781;42.272;22.658;2022-10-16T00:22:47;1.73;;;1.57;;
7479;SDS011;3781;42.272;22.658;2022-10-16T00:25:13;1.07;;;0.97;;
7479;SDS011;3781;42.272;22.658;2022-10-16T00:27:40;1.93;;;1.27;;
7479;SDS011;3781;42.272;22.658;2022-10-16T00:30:08;0.37;;;0.37;;
7479;SDS011;3781;42.272;22.658;2022-10-16T00:32:35;0.77;;;0.63;;
7479;SDS011;3781;42.272;22.658;2022-10-16T00:35:03;1.10;;;1.00;;
7479;SDS011;3781;42.272;22.658;2022-10-16T00:37:31;1.33;;;1.07;;
7479;SDS011;3781;42.272;22.658;2022-10-16T00:39:57;1.33;;;1.07;;
7479;SDS011;3781;42.272;22.658;2022-10-16T00:42:24;3.03;;;1.30;;
7479;SDS011;3781;42.272;22.658;2022-10-16T00:44:52;1.30;;;1.17;;
7479;SDS011;3781;42.272;22.658;2022-10-16T00:47:21;2.57;;;1.03;;
7479;SDS011;3781;42.272;22.658;2022-10-16T00:49:53;0.40;;;0.40;;
7479;SDS011;3781;42.272;22.658;2022-10-16T00:52:26;4.10;;;0.77;;
7479;SDS011;3781;42.272;22.658;2022-10-16T00:54:53;0.83;;;0.50;;
7479;SDS011;3781;42.272;22.658;2022-10-16T00:57:21;1.47;;;0.83;;
7479;SDS011;3781;42.272;22.658;2022-10-16T00:59:49;2.47;;;1.30;;
7479;SDS011;3781;42.272;22.658;2022-10-16T01:02:16;2.10;;;1.07;;
7479;SDS011;3781;42.272;22.658;2022-10-16T01:04:44;0.50;;;0.50;;
7479;SDS011;3781;42.272;22.658;2022-10-16T01:07:14;1.47;;;1.23;;
7479;SDS011;3781;42.272;22.658;2022-10-16T01:09:54;1.13;;;1.03;;
7479;SDS011;3781;42.272;22.658;2022-10-16T01:12:31;0.97;;;0.97;;
7479;SDS011;3781;42.272;22.658;2022-10-16T01:15:06;2.67;;;1.00;;
7479;SDS011;3781;42.272;22.658;2022-10-16T01:17:39;1.30;;;0.93;;
7479;SDS011;3781;42.272;22.658;2022-10-16T01:20:10;0.40;;;0.40;;
7479;SDS011;3781;42.272;22.658;2022-10-16T01:22:48;2.43;;;1.47;;
7479;SDS011;3781;42.272;22.658;2022-10-16T01:25:29;0.20;;;0.20;;
7479;SDS011;3781;42.272;22.658;2022-10-16T01:28:05;0.90;;;0.90;;
7479;SDS011;3781;42.272;22.658;2022-10-16T01:30:37;0.77;;;0.77;;
7479;SDS011;3781;42.272;22.658;2022-10-16T01:33:07;0.90;;;0.90;;
7479;SDS011;3781;42.272;22.658;2022-10-16T01:35:41;2.23;;;0.83;;
7479;SDS011;3781;42.272;22.658;2022-10-16T01:38:12;0.50;;;0.47;;
7479;SDS011;3781;42.272;22.658;2022-10-16T01:40:44;0.70;;;0.70;;
7479;SDS011;3781;42.272;22.658;2022-10-16T01:43:18;1.87;;;1.47;;
7479;SDS011;3781;42.272;22.658;2022-10-16T01:45:50;0.93;;;0.93;;
7479;SDS011;3781;42.272;22.658;2022-10-16T01:48:19;0.80;;;0.67;;
7479;SDS011;3781;42.272;22.658;2022-10-16T01:50:49;0.27;;;0.27;;
7479;SDS011;3781;42.272;22.658;2022-10-16T01:53:22;13.90;;;1.13;;
7479;SDS011;3781;42.272;22.658;2022-10-16T01:55:50;0.73;;;0.70;;
7479;SDS011;3781;42.272;22.658;2022-10-16T01:58:22;0.40;;;0.37;;
7479;SDS011;3781;42.272;22.658;2022-10-16T02:00:51;0.60;;;0.60;;
7479;SDS011;3781;42.272;22.658;2022-10-16T02:03:20;1.63;;;1.53;;
7479;SDS011;3781;42.272;22.658;2022-10-16T02:05:49;1.50;;;1.40;;
7479;SDS011;3781;42.272;22.658;2022-10-16T02:08:19;1.60;;;1.10;;
7479;SDS011;3781;42.272;22.658;2022-10-16T02:10:49;1.60;;;1.00;;
7479;SDS011;3781;42.272;22.658;2022-10-16T02:13:17;1.33;;;1.20;;
7479;SDS011;3781;42.272;22.658;2022-10-16T02:15:48;2.10;;;1.37;;
7479;SDS011;3781;42.272;22.658;2022-10-16T02:18:15;2.80;;;1.87;;
7479;SDS011;3781;42.272;22.658;2022-10-16T02:20:44;2.93;;;1.70;;
7479;SDS011;3781;42.272;22.658;2022-10-16T02:23:17;1.40;;;0.77;;
7479;SDS011;3781;42.272;22.658;2022-10-16T02:25:50;2.20;;;1.33;;
7479;SDS011;3781;42.272;22.658;2022-10-16T02:28:19;0.73;;;0.73;;
7479;SDS011;3781;42.272;22.658;2022-10-16T02:30:53;1.50;;;1.10;;
7479;SDS011;3781;42.272;22.658;2022-10-16T02:33:23;2.07;;;1.43;;
7479;SDS011;3781;42.272;22.658;2022-10-16T02:35:52;1.10;;;0.87;;
7479;SDS011;3781;42.272;22.658;2022-10-16T02:38:20;1.53;;;1.30;;
7479;SDS011;3781;42.272;22.658;2022-10-16T02:40:49;0.97;;;0.60;;
7479;SDS011;3781;42.272;22.658;2022-10-16T02:43:16;0.50;;;0.50;;
7479;SDS011;3781;42.272;22.658;2022-10-16T02:45:43;1.93;;;0.67;;
7479;SDS011;3781;42.272;22.658;2022-10-16T02:48:11;0.77;;;0.77;;
7479;SDS011;3781;42.272;22.658;2022-10-16T02:50:38;0.73;;;0.57;;
7479;SDS011;3781;42.272;22.658;2022-10-16T02:53:04;1.60;;;1.10;;
7479;SDS011;3781;42.272;22.658;2022-10-16T02:55:31;0.40;;;0.40;;
7479;SDS011;3781;42.272;22.658;2022-10-16T02:57:58;0.97;;;0.90;;
7479;SDS011;3781;42.272;22.658;2022-10-16T03:00:25;0.90;;;0.90;;
7479;SDS011;3781;42.272;22.658;2022-10-16T03:02:51;2.97;;;0.50;;
7479;SDS011;3781;42.272;22.658;2022-10-16T03:05:20;1.03;;;0.77;;
7479;SDS011;3781;42.272;22.658;2022-10-16T03:07:47;0.83;;;0.70;;
7479;SDS011;3781;42.272;22.658;2022-10-16T03:10:13;0.30;;;0.30;;
7479;SDS011;3781;42.272;22.658;2022-10-16T03:12:40;0.20;;;0.20;;
7479;SDS011;3781;42.272;22.658;2022-10-16T03:15:07;1.50;;;0.60;;
7479;SDS011;3781;42.272;22.658;2022-10-16T03:17:34;1.20;;;0.77;;
7479;SDS011;3781;42.272;22.658;2022-10-16T03:20:01;1.00;;;1.00;;
7479;SDS011;3781;42.272;22.658;2022-10-16T03:22:30;0.40;;;0.40;;
7479;SDS011;3781;42.272;22.658;2022-10-16T03:24:57;0.97;;;0.80;;
7479;SDS011;3781;42.272;22.658;2022-10-16T03:27:24;1.90;;;0.77;;
7479;SDS011;3781;42.272;22.658;2022-10-16T03:29:50;0.97;;;0.77;;
7479;SDS011;3781;42.272;22.658;2022-10-16T03:32:17;2.50;;;1.77;;
7479;SDS011;3781;42.272;22.658;2022-10-16T03:34:45;0.80;;;0.80;;
7479;SDS011;3781;42.272;22.658;2022-10-16T03:37:12;2.30;;;1.57;;
7479;SDS011;3781;42.272;22.658;2022-10-16T03:39:40;0.80;;;0.80;;
7479;SDS011;3781;42.272;22.658;2022-10-16T03:42:07;1.57;;;0.90;;
7479;SDS011;3781;42.272;22.658;2022-10-16T03:44:33;3.27;;;0.97;;
7479;SDS011;3781;42.272;22.658;2022-10-16T03:47:00;1.50;;;0.83;;
7479;SDS011;3781;42.272;22.658;2022-10-16T03:49:27;0.63;;;0.63;;
7479;SDS011;3781;42.272;22.658;2022-10-16T03:51:54;1.23;;;1.13;;
7479;SDS011;3781;42.272;22.658;2022-10-16T03:54:20;3.60;;;1.97;;
7479;SDS011;3781;42.272;22.658;2022-10-16T03:56:49;1.73;;;1.20;;
7479;SDS011;3781;42.272;22.658;2022-10-16T03:59:16;0.87;;;0.87;;
7479;SDS011;3781;42.272;22.658;2022-10-16T04:01:43;2.30;;;1.70;;
7479;SDS011;3781;42.272;22.658;2022-10-16T04:04:09;2.00;;;1.20;;
7479;SDS011;3781;42.272;22.658;2022-10-16T04:06:36;1.23;;;0.97;;
7479;SDS011;3781;42.272;22.658;2022-10-16T04:09:03;0.50;;;0.50;;
7479;SDS011;3781;42.272;22.658;2022-10-16T04:11:30;0.77;;;0.77;;
7479;SDS011;3781;42.272;22.658;2022-10-16T04:13:58;1.07;;;0.83;;
7479;SDS011;3781;42.272;22.658;2022-10-16T04:16:25;1.10;;;1.00;;
7479;SDS011;3781;42.272;22.658;2022-10-16T04:18:51;0.70;;;0.67;;
7479;SDS011;3781;42.272;22.658;2022-10-16T04:21:18;2.00;;;1.27;;
7479;SDS011;3781;42.272;22.658;2022-10-16T04:23:45;1.27;;;0.93;;
7479;SDS011;3781;42.272;22.658;2022-10-16T04:26:12;0.37;;;0.30;;
7479;SDS011;3781;42.272;22.658;2022-10-16T04:28:38;1.07;;;1.03;;
7479;SDS011;3781;42.272;22.658;2022-10-16T04:31:07;1.73;;;0.50;;
7479;SDS011;3781;42.272;22.658;2022-10-16T04:33:33;1.00;;;0.73;;
7479;SDS011;3781;42.272;22.658;2022-10-16T04:36:01;0.67;;;0.67;;
7479;SDS011;3781;42.272;22.658;2022-10-16T04:38:29;1.13;;;0.90;;
7479;SDS011;3781;42.272;22.658;2022-10-16T04:40:55;1.10;;;1.10;;
7479;SDS011;3781;42.272;22.658;2022-10-16T04:43:22;1.50;;;1.13;;
7479;SDS011;3781;42.272;22.658;2022-10-16T04:45:49;0.40;;;0.40;;
7479;SDS011;3781;42.272;22.658;2022-10-16T04:48:18;0.30;;;0.30;;
7479;SDS011;3781;42.272;22.658;2022-10-16T04:50:45;0.87;;;0.57;;
7479;SDS011;3781;42.272;22.658;2022-10-16T04:53:12;0.90;;;0.70;;
7479;SDS011;3781;42.272;22.658;2022-10-16T04:55:38;0.87;;;0.80;;
7479;SDS011;3781;42.272;22.658;2022-10-16T04:58:06;0.70;;;0.70;;
7479;SDS011;3781;42.272;22.658;2022-10-16T05:00:33;6.07;;;1.30;;
7479;SDS011;3781;42.272;22.658;2022-10-16T05:03:00;1.87;;;0.83;;
7479;SDS011;3781;42.272;22.658;2022-10-16T05:05:32;1.43;;;0.60;;
7479;SDS011;3781;42.272;22.658;2022-10-16T05:07:59;0.50;;;0.50;;
7479;SDS011;3781;42.272;22.658;2022-10-16T05:10:26;2.33;;;1.63;;
7479;SDS011;3781;42.272;22.658;2022-10-16T05:12:53;3.10;;;0.60;;
7479;SDS011;3781;42.272;22.658;2022-10-16T05:15:19;4.87;;;1.10;;
7479;SDS011;3781;42.272;22.658;2022-10-16T05:17:46;1.40;;;1.30;;
7479;SDS011;3781;42.272;22.658;2022-10-16T05:20:13;1.13;;;0.93;;
7479;SDS011;3781;42.272;22.658;2022-10-16T05:22:41;3.97;;;1.27;;
7479;SDS011;3781;42.272;22.658;2022-10-16T05:25:08;2.30;;;1.77;;
7479;SDS011;3781;42.272;22.658;2022-10-16T05:27:35;5.47;;;1.73;;
7479;SDS011;3781;42.272;22.658;2022-10-16T05:30:02;2.87;;;2.67;;
7479;SDS011;3781;42.272;22.658;2022-10-16T05:32:29;1.65;;;1.10;;
7479;SDS011;3781;42.272;22.658;2022-10-16T05:34:56;1.50;;;1.40;;
7479;SDS011;3781;42.272;22.658;2022-10-16T06:04:57;6.40;;;4.15;;
7479;SDS011;3781;42.272;22.658;2022-10-16T06:07:24;8.10;;;3.43;;
7479;SDS011;3781;42.272;22.658;2022-10-16T06:09:51;6.33;;;3.17;;
7479;SDS011;3781;42.272;22.658;2022-10-16T06:12:19;6.33;;;3.60;;
7479;SDS011;3781;42.272;22.658;2022-10-16T06:14:46;7.60;;;3.13;;
7479;SDS011;3781;42.272;22.658;2022-10-16T06:17:13;3.93;;;2.97;;
7479;SDS011;3781;42.272;22.658;2022-10-16T06:19:40;4.77;;;2.83;;
7479;SDS011;3781;42.272;22.658;2022-10-16T06:22:09;5.03;;;3.10;;
7479;SDS011;3781;42.272;22.658;2022-10-16T06:24:36;2.60;;;2.40;;
7479;SDS011;3781;42.272;22.658;2022-10-16T06:27:02;3.67;;;2.27;;
7479;SDS011;3781;42.272;22.658;2022-10-16T06:29:30;1.70;;;1.60;;
7479;SDS011;3781;42.272;22.658;2022-10-16T06:31:57;2.67;;;2.40;;
7479;SDS011;3781;42.272;22.658;2022-10-16T06:34:24;2.30;;;2.20;;
7479;SDS011;3781;42.272;22.658;2022-10-16T06:36:50;1.73;;;1.63;;
7479;SDS011;3781;42.272;22.658;2022-10-16T06:39:19;2.53;;;2.33;;
7479;SDS011;3781;42.272;22.658;2022-10-16T06:41:45;1.90;;;1.80;;
7479;SDS011;3781;42.272;22.658;2022-10-16T06:44:12;2.50;;;2.10;;
7479;SDS011;3781;42.272;22.658;2022-10-16T06:46:39;2.43;;;2.23;;
7479;SDS011;3781;42.272;22.658;2022-10-16T06:49:05;2.47;;;2.27;;
7479;SDS011;3781;42.272;22.658;2022-10-16T06:51:32;3.20;;;2.57;;
7479;SDS011;3781;42.272;22.658;2022-10-16T06:54:01;2.50;;;2.30;;
7479;SDS011;3781;42.272;22.658;2022-10-16T06:56:30;2.60;;;2.30;;
7479;SDS011;3781;42.272;22.658;2022-10-16T06:58:57;2.20;;;1.90;;
7479;SDS011;3781;42.272;22.658;2022-10-16T07:01:25;2.30;;;2.17;;
7479;SDS011;3781;42.272;22.658;2022-10-16T07:03:52;3.47;;;2.80;;
7479;SDS011;3781;42.272;22.658;2022-10-16T07:06:19;2.83;;;2.50;;
7479;SDS011;3781;42.272;22.658;2022-10-16T07:08:47;2.77;;;2.57;;
7479;SDS011;3781;42.272;22.658;2022-10-16T07:11:16;4.03;;;2.13;;
7479;SDS011;3781;42.272;22.658;2022-10-16T07:13:45;2.70;;;2.50;;
7479;SDS011;3781;42.272;22.658;2022-10-16T07:16:14;6.20;;;2.33;;
7479;SDS011;3781;42.272;22.658;2022-10-16T07:18:42;2.75;;;2.55;;
7479;SDS011;3781;42.272;22.658;2022-10-16T07:21:11;2.25;;;2.10;;
7479;SDS011;3781;42.272;22.658;2022-10-16T07:23:40;1.70;;;1.60;;
7479;SDS011;3781;42.272;22.658;2022-10-16T07:26:07;2.53;;;2.33;;
7479;SDS011;3781;42.272;22.658;2022-10-16T07:28:34;2.35;;;2.17;;
7479;SDS011;3781;42.272;22.658;2022-10-16T07:31:03;3.00;;;2.70;;
7479;SDS011;3781;42.272;22.658;2022-10-16T07:33:30;3.22;;;3.03;;
7479;SDS011;3781;42.272;22.658;2022-10-16T07:35:57;3.50;;;3.08;;
7479;SDS011;3781;42.272;22.658;2022-10-16T07:38:24;2.65;;;2.45;;
7479;SDS011;3781;42.272;22.658;2022-10-16T07:40:55;3.80;;;3.40;;
7479;SDS011;3781;42.272;22.658;2022-10-16T07:43:24;3.13;;;2.88;;
7479;SDS011;3781;42.272;22.658;2022-10-16T07:45:50;4.65;;;3.97;;
7479;SDS011;3781;42.272;22.658;2022-10-16T07:48:19;3.55;;;3.25;;
7479;SDS011;3781;42.272;22.658;2022-10-16T07:50:46;6.07;;;3.67;;
7479;SDS011;3781;42.272;22.658;2022-10-16T07:53:13;3.53;;;3.22;;
7479;SDS011;3781;42.272;22.658;2022-10-16T07:55:40;3.28;;;2.97;;
7479;SDS011;3781;42.272;22.658;2022-10-16T07:58:07;3.08;;;2.78;;
7479;SDS011;3781;42.272;22.658;2022-10-16T08:00:35;2.90;;;2.60;;
7479;SDS011;3781;42.272;22.658;2022-10-16T08:03:02;2.80;;;2.60;;
7479;SDS011;3781;42.272;22.658;2022-10-16T08:05:31;1.60;;;1.50;;
7479;SDS011;3781;42.272;22.658;2022-10-16T08:07:59;2.20;;;2.10;;
7479;SDS011;3781;42.272;22.658;2022-10-16T08:10:27;1.98;;;1.80;;
7479;SDS011;3781;42.272;22.658;2022-10-16T08:12:55;1.60;;;1.50;;
7479;SDS011;3781;42.272;22.658;2022-10-16T08:15:21;2.28;;;2.08;;
7479;SDS011;3781;42.272;22.658;2022-10-16T08:17:55;1.80;;;1.70;;
7479;SDS011;3781;42.272;22.658;2022-10-16T08:20:24;3.03;;;2.72;;
7479;SDS011;3781;42.272;22.658;2022-10-16T08:22:52;2.53;;;2.20;;
7479;SDS011;3781;42.272;22.658;2022-10-16T08:25:20;2.00;;;1.85;;
7479;SDS011;3781;42.272;22.658;2022-10-16T08:27:48;2.22;;;1.67;;
7479;SDS011;3781;42.272;22.658;2022-10-16T08:30:15;1.73;;;1.63;;
7479;SDS011;3781;42.272;22.658;2022-10-16T08:32:43;1.58;;;1.48;;
7479;SDS011;3781;42.272;22.658;2022-10-16T08:35:10;1.92;;;1.83;;
7479;SDS011;3781;42.272;22.658;2022-10-16T08:37:38;3.00;;;2.30;;
7479;SDS011;3781;42.272;22.658;2022-10-16T08:40:12;2.90;;;2.35;;
7479;SDS011;3781;42.272;22.658;2022-10-16T08:42:47;3.50;;;2.38;;
7479;SDS011;3781;42.272;22.658;2022-10-16T08:45:34;2.60;;;2.40;;
7479;SDS011;3781;42.272;22.658;2022-10-16T08:48:14;3.15;;;2.00;;
7479;SDS011;3781;42.272;22.658;2022-10-16T08:50:48;2.30;;;1.92;;
7479;SDS011;3781;42.272;22.658;2022-10-16T08:53:22;2.40;;;1.55;;
7479;SDS011;3781;42.272;22.658;2022-10-16T08:55:58;2.30;;;2.10;;
7479;SDS011;3781;42.272;22.658;2022-10-16T08:58:26;2.28;;;2.08;;
7479;SDS011;3781;42.272;22.658;2022-10-16T09:00:54;1.92;;;1.83;;
7479;SDS011;3781;42.272;22.658;2022-10-16T09:03:29;2.60;;;2.22;;
7479;SDS011;3781;42.272;22.658;2022-10-16T09:09:03;1.98;;;1.75;;
7479;SDS011;3781;42.272;22.658;2022-10-16T09:11:44;2.38;;;2.20;;
7479;SDS011;3781;42.272;22.658;2022-10-16T09:14:28;1.35;;;1.27;;
7479;SDS011;3781;42.272;22.658;2022-10-16T09:17:06;1.95;;;1.73;;
7479;SDS011;3781;42.272;22.658;2022-10-16T09:19:46;2.25;;;2.03;;
7479;SDS011;3781;42.272;22.658;2022-10-16T09:22:17;2.10;;;1.90;;
7479;SDS011;3781;42.272;22.658;2022-10-16T09:24:48;1.77;;;1.35;;
7479;SDS011;3781;42.272;22.658;2022-10-16T09:27:16;1.70;;;1.60;;
7479;SDS011;3781;42.272;22.658;2022-10-16T09:29:43;3.25;;;1.95;;
7479;SDS011;3781;42.272;22.658;2022-10-16T09:32:10;2.17;;;1.65;;
7479;SDS011;3781;42.272;22.658;2022-10-16T09:34:41;2.35;;;2.10;;
7479;SDS011;3781;42.272;22.658;2022-10-16T09:37:11;1.77;;;1.67;;
7479;SDS011;3781;42.272;22.658;2022-10-16T09:39:44;2.97;;;2.78;;
7479;SDS011;3781;42.272;22.658;2022-10-16T09:42:13;1.90;;;1.80;;
7479;SDS011;3781;42.272;22.658;2022-10-16T09:44:46;1.55;;;1.45;;
7479;SDS011;3781;42.272;22.658;2022-10-16T09:47:16;1.58;;;1.48;;
7479;SDS011;3781;42.272;22.658;2022-10-16T09:49:51;2.28;;;1.42;;
7479;SDS011;3781;42.272;22.658;2022-10-16T09:52:20;1.40;;;1.30;;
7479;SDS011;3781;42.272;22.658;2022-10-16T09:54:49;1.20;;;1.20;;
7479;SDS011;3781;42.272;22.658;2022-10-16T09:57:19;1.40;;;1.27;;
7479;SDS011;3781;42.272;22.658;2022-10-16T09:59:47;1.50;;;1.33;;
7479;SDS011;3781;42.272;22.658;2022-10-16T10:02:14;1.42;;;1.38;;
7479;SDS011;3781;42.272;22.658;2022-10-16T10:04:45;2.97;;;1.42;;
7479;SDS011;3781;42.272;22.658;2022-10-16T10:07:19;1.70;;;1.60;;
7479;SDS011;3781;42.272;22.658;2022-10-16T10:09:50;1.48;;;1.30;;
7479;SDS011;3781;42.272;22.658;2022-10-16T10:12:20;1.27;;;1.15;;
7479;SDS011;3781;42.272;22.658;2022-10-16T10:14:48;1.55;;;1.45;;
7479;SDS011;3781;42.272;22.658;2022-10-16T10:17:18;2.63;;;2.40;;
7479;SDS011;3781;42.272;22.658;2022-10-16T10:19:47;1.40;;;1.30;;
7479;SDS011;3781;42.272;22.658;2022-10-16T10:22:17;1.52;;;1.42;;
7479;SDS011;3781;42.272;22.658;2022-10-16T10:24:54;1.35;;;1.25;;
7479;SDS011;3781;42.272;22.658;2022-10-16T10:27:23;1.17;;;1.13;;
7479;SDS011;3781;42.272;22.658;2022-10-16T10:30:00;1.00;;;0.90;;
7479;SDS011;3781;42.272;22.658;2022-10-16T10:32:31;1.05;;;1.05;;
7479;SDS011;3781;42.272;22.658;2022-10-16T10:35:07;1.10;;;1.00;;
7479;SDS011;3781;42.272;22.658;2022-10-16T10:37:46;1.10;;;1.03;;
7479;SDS011;3781;42.272;22.658;2022-10-16T10:40:38;1.70;;;1.60;;
7479;SDS011;3781;42.272;22.658;2022-10-16T10:43:15;0.90;;;0.90;;
7479;SDS011;3781;42.272;22.658;2022-10-16T10:45:50;1.00;;;1.00;;
7479;SDS011;3781;42.272;22.658;2022-10-16T10:48:27;1.20;;;1.10;;
7479;SDS011;3781;42.272;22.658;2022-10-16T10:51:17;1.73;;;1.08;;
7479;SDS011;3781;42.272;22.658;2022-10-16T10:53:51;1.27;;;1.17;;
7479;SDS011;3781;42.272;22.658;2022-10-16T11:02:11;0.80;;;0.80;;
7479;SDS011;3781;42.272;22.658;2022-10-16T11:04:49;3.92;;;0.80;;
7479;SDS011;3781;42.272;22.658;2022-10-16T11:07:28;1.33;;;1.23;;
7479;SDS011;3781;42.272;22.658;2022-10-16T11:10:01;1.17;;;1.08;;
7479;SDS011;3781;42.272;22.658;2022-10-16T11:12:31;1.23;;;0.60;;
7479;SDS011;3781;42.272;22.658;2022-10-16T11:15:04;1.60;;;1.50;;
7479;SDS011;3781;42.272;22.658;2022-10-16T11:17:38;2.15;;;0.73;;
7479;SDS011;3781;42.272;22.658;2022-10-16T11:20:12;1.60;;;1.50;;
7479;SDS011;3781;42.272;22.658;2022-10-16T11:22:44;0.98;;;0.98;;
7479;SDS011;3781;42.272;22.658;2022-10-16T11:25:16;1.08;;;1.08;;
7479;SDS011;3781;42.272;22.658;2022-10-16T11:27:47;1.27;;;1.17;;
7479;SDS011;3781;42.272;22.658;2022-10-16T11:30:20;1.40;;;1.30;;
7479;SDS011;3781;42.272;22.658;2022-10-16T11:32:52;0.95;;;0.95;;
7479;SDS011;3781;42.272;22.658;2022-10-16T11:35:24;0.85;;;0.85;;
7479;SDS011;3781;42.272;22.658;2022-10-16T11:37:58;1.45;;;1.27;;
7479;SDS011;3781;42.272;22.658;2022-10-16T11:40:31;1.13;;;1.08;;
7479;SDS011;3781;42.272;22.658;2022-10-16T11:43:01;1.23;;;1.15;;
7479;SDS011;3781;42.272;22.658;2022-10-16T11:45:39;0.90;;;0.90;;
7479;SDS011;3781;42.272;22.658;2022-10-16T11:48:11;0.93;;;0.90;;
7479;SDS011;3781;42.272;22.658;2022-10-16T11:50:48;4.32;;;1.17;;
7479;SDS011;3781;42.272;22.658;2022-10-16T11:53:23;1.55;;;1.25;;
7479;SDS011;3781;42.272;22.658;2022-10-16T11:56:05;1.48;;;1.38;;
7479;SDS011;3781;42.272;22.658;2022-10-16T11:58:33;1.08;;;1.05;;
7479;SDS011;3781;42.272;22.658;2022-10-16T12:01:14;0.68;;;0.68;;
7479;SDS011;3781;42.272;22.658;2022-10-16T12:03:47;0.82;;;0.82;;
7479;SDS011;3781;42.272;22.658;2022-10-16T12:06:28;1.73;;;0.90;;
7479;SDS011;3781;42.272;22.658;2022-10-16T12:08:59;1.00;;;1.00;;
7479;SDS011;3781;42.272;22.658;2022-10-16T12:11:31;0.80;;;0.77;;
7479;SDS011;3781;42.272;22.658;2022-10-16T12:14:04;1.85;;;1.30;;
7479;SDS011;3781;42.272;22.658;2022-10-16T12:16:36;1.35;;;1.25;;
7479;SDS011;3781;42.272;22.658;2022-10-16T12:19:11;1.10;;;1.02;;
7479;SDS011;3781;42.272;22.658;2022-10-16T12:21:39;2.35;;;1.00;;
7479;SDS011;3781;42.272;22.658;2022-10-16T12:24:19;1.58;;;1.00;;
7479;SDS011;3781;42.272;22.658;2022-10-16T12:26:48;1.63;;;0.82;;
7479;SDS011;3781;42.272;22.658;2022-10-16T12:29:22;1.48;;;1.38;;
7479;SDS011;3781;42.272;22.658;2022-10-16T12:31:56;1.20;;;1.10;;
7479;SDS011;3781;42.272;22.658;2022-10-16T12:34:25;1.40;;;1.30;;
7479;SDS011;3781;42.272;22.658;2022-10-16T12:36:54;1.58;;;1.27;;
7479;SDS011;3781;42.272;22.658;2022-10-16T12:39:33;1.80;;;1.02;;
7479;SDS011;3781;42.272;22.658;2022-10-16T12:42:02;1.05;;;1.05;;
7479;SDS011;3781;42.272;22.658;2022-10-16T12:44:34;0.63;;;0.63;;
7479;SDS011;3781;42.272;22.658;2022-10-16T12:47:03;1.10;;;0.93;;
7479;SDS011;3781;42.272;22.658;2022-10-16T12:49:34;0.90;;;0.90;;
7479;SDS011;3781;42.272;22.658;2022-10-16T12:52:03;1.85;;;1.23;;
7479;SDS011;3781;42.272;22.658;2022-10-16T12:54:31;1.88;;;1.77;;
7479;SDS011;3781;42.272;22.658;2022-10-16T12:57:12;1.35;;;1.25;;
7479;SDS011;3781;42.272;22.658;2022-10-16T12:59:53;1.20;;;1.20;;
7479;SDS011;3781;42.272;22.658;2022-10-16T13:02:39;1.85;;;1.58;;
7479;SDS011;3781;42.272;22.658;2022-10-16T13:05:24;2.60;;;1.30;;
7479;SDS011;3781;42.272;22.658;2022-10-16T13:07:59;1.20;;;1.13;;
7479;SDS011;3781;42.272;22.658;2022-10-16T13:10:39;1.17;;;1.10;;
7479;SDS011;3781;42.272;22.658;2022-10-16T13:13:23;1.10;;;1.00;;
7479;SDS011;3781;42.272;22.658;2022-10-16T13:16:10;1.20;;;1.10;;
7479;SDS011;3781;42.272;22.658;2022-10-16T13:18:47;0.70;;;0.70;;
7479;SDS011;3781;42.272;22.658;2022-10-16T13:21:29;0.90;;;0.80;;
7479;SDS011;3781;42.272;22.658;2022-10-16T13:24:08;4.70;;;4.30;;
7479;SDS011;3781;42.272;22.658;2022-10-16T13:26:44;2.10;;;2.00;;
7479;SDS011;3781;42.272;22.658;2022-10-16T13:29:18;1.17;;;1.17;;
7479;SDS011;3781;42.272;22.658;2022-10-16T13:31:46;1.38;;;1.30;;
7479;SDS011;3781;42.272;22.658;2022-10-16T13:34:15;0.93;;;0.93;;
7479;SDS011;3781;42.272;22.658;2022-10-16T13:36:46;1.48;;;1.00;;
7479;SDS011;3781;42.272;22.658;2022-10-16T13:39:18;0.88;;;0.88;;
7479;SDS011;3781;42.272;22.658;2022-10-16T13:41:57;0.95;;;0.77;;
7479;SDS011;3781;42.272;22.658;2022-10-16T13:44:27;1.30;;;1.20;;
7479;SDS011;3781;42.272;22.658;2022-10-16T13:47:01;1.17;;;1.08;;
7479;SDS011;3781;42.272;22.658;2022-10-16T13:49:30;1.95;;;0.90;;
7479;SDS011;3781;42.272;22.658;2022-10-16T13:51:57;0.80;;;0.80;;
7479;SDS011;3781;42.272;22.658;2022-10-16T13:54:25;0.60;;;0.60;;
7479;SDS011;3781;42.272;22.658;2022-10-16T13:56:54;1.73;;;0.90;;
7479;SDS011;3781;42.272;22.658;2022-10-16T13:59:23;1.00;;;1.00;;
7479;SDS011;3781;42.272;22.658;2022-10-16T14:01:51;1.20;;;1.10;;
7479;SDS011;3781;42.272;22.658;2022-10-16T14:04:20;0.73;;;0.73;;
7479;SDS011;3781;42.272;22.658;2022-10-16T14:06:50;0.65;;;0.65;;
7479;SDS011;3781;42.272;22.658;2022-10-16T14:09:21;6.40;;;2.35;;
7479;SDS011;3781;42.272;22.658;2022-10-16T14:11:51;4.30;;;1.92;;
7479;SDS011;3781;42.272;22.658;2022-10-16T14:14:20;1.75;;;1.10;;
7479;SDS011;3781;42.272;22.658;2022-10-16T14:16:48;0.98;;;0.88;;
7479;SDS011;3781;42.272;22.658;2022-10-16T14:19:17;1.52;;;0.63;;
7479;SDS011;3781;42.272;22.658;2022-10-16T14:21:47;1.20;;;0.95;;
7479;SDS011;3781;42.272;22.658;2022-10-16T14:24:22;1.65;;;1.58;;
7479;SDS011;3781;42.272;22.658;2022-10-16T14:26:53;7.82;;;4.70;;
7479;SDS011;3781;42.272;22.658;2022-10-16T14:29:21;3.88;;;3.38;;
7479;SDS011;3781;42.272;22.658;2022-10-16T14:31:55;1.48;;;1.38;;
7479;SDS011;3781;42.272;22.658;2022-10-16T14:34:28;0.77;;;0.77;;
7479;SDS011;3781;42.272;22.658;2022-10-16T14:36:58;0.95;;;0.95;;
7479;SDS011;3781;42.272;22.658;2022-10-16T14:39:31;1.13;;;0.88;;
7479;SDS011;3781;42.272;22.658;2022-10-16T14:41:58;3.10;;;1.35;;
7479;SDS011;3781;42.272;22.658;2022-10-16T14:44:27;1.52;;;1.42;;
7479;SDS011;3781;42.272;22.658;2022-10-16T14:46:57;0.80;;;0.80;;
7479;SDS011;3781;42.272;22.658;2022-10-16T14:49:25;1.67;;;1.58;;
7479;SDS011;3781;42.272;22.658;2022-10-16T14:51:53;1.67;;;1.27;;
7479;SDS011;3781;42.272;22.658;2022-10-16T14:54:20;1.33;;;1.33;;
7479;SDS011;3781;42.272;22.658;2022-10-16T14:56:49;3.27;;;1.90;;
7479;SDS011;3781;42.272;22.658;2022-10-16T14:59:19;2.30;;;1.40;;
7479;SDS011;3781;42.272;22.658;2022-10-16T15:01:51;1.00;;;0.97;;
7479;SDS011;3781;42.272;22.658;2022-10-16T15:04:18;0.87;;;0.83;;
7479;SDS011;3781;42.272;22.658;2022-10-16T15:06:44;0.63;;;0.63;;
7479;SDS011;3781;42.272;22.658;2022-10-16T15:09:11;1.07;;;0.73;;
7479;SDS011;3781;42.272;22.658;2022-10-16T15:11:38;1.37;;;1.10;;
7479;SDS011;3781;42.272;22.658;2022-10-16T15:14:08;1.27;;;0.80;;
7479;SDS011;3781;42.272;22.658;2022-10-16T15:16:37;0.93;;;0.90;;
7479;SDS011;3781;42.272;22.658;2022-10-16T15:19:03;0.90;;;0.73;;
7479;SDS011;3781;42.272;22.658;2022-10-16T15:21:31;5.03;;;3.20;;
7479;SDS011;3781;42.272;22.658;2022-10-16T15:23:59;2.93;;;1.50;;
7479;SDS011;3781;42.272;22.658;2022-10-16T15:26:27;1.60;;;1.40;;
7479;SDS011;3781;42.272;22.658;2022-10-16T15:28:55;2.40;;;1.90;;
7479;SDS011;3781;42.272;22.658;2022-10-16T15:31:24;0.97;;;0.97;;
7479;SDS011;3781;42.272;22.658;2022-10-16T15:33:50;3.37;;;1.30;;
7479;SDS011;3781;42.272;22.658;2022-10-16T15:36:24;0.50;;;0.50;;
7479;SDS011;3781;42.272;22.658;2022-10-16T15:38:52;0.80;;;0.67;;
7479;SDS011;3781;42.272;22.658;2022-10-16T15:41:19;2.40;;;2.20;;
7479;SDS011;3781;42.272;22.658;2022-10-16T15:43:47;1.33;;;1.17;;
7479;SDS011;3781;42.272;22.658;2022-10-16T15:46:14;5.13;;;1.30;;
7479;SDS011;3781;42.272;22.658;2022-10-16T15:48:44;1.47;;;1.37;;
7479;SDS011;3781;42.272;22.658;2022-10-16T15:51:11;1.47;;;1.37;;
7479;SDS011;3781;42.272;22.658;2022-10-16T15:53:38;5.93;;;1.63;;